createdAt,value
2022-10-21T00:00:41.451Z,9.26
2022-10-21T00:03:09.499Z,9.18
2022-10-21T00:05:36.939Z,9.20
2022-10-21T00:08:04.268Z,9.15
2022-10-21T00:10:32.015Z,9.17
2022-10-21T00:12:59.361Z,9.09
2022-10-21T00:15:26.651Z,9.09
2022-10-21T00:17:54.376Z,9.06
2022-10-21T00:22:54.003Z,9.21
2022-10-21T00:25:21.259Z,9.15
2022-10-21T00:27:48.549Z,9.06
2022-10-21T00:30:16.223Z,9.04
2022-10-21T00:32:43.503Z,9.00
2022-10-21T00:35:10.769Z,8.94
2022-10-21T00:37:38.560Z,8.81
2022-10-21T00:40:06.387Z,8.99
2022-10-21T00:42:40.743Z,8.98
2022-10-21T00:45:20.801Z,8.97
2022-10-21T00:47:57.760Z,8.88
2022-10-21T00:50:48.263Z,8.81
2022-10-21T00:53:15.983Z,8.89
2022-10-21T00:55:53.055Z,8.88
2022-10-21T00:58:23.001Z,8.86
2022-10-21T01:00:51.648Z,8.81
2022-10-21T01:03:19.078Z,8.79
2022-10-21T01:05:47.034Z,8.82
2022-10-21T01:08:14.646Z,8.79
2022-10-21T01:10:42.151Z,8.76
2022-10-21T01:13:34.361Z,8.78
2022-10-21T01:16:10.214Z,8.76
2022-10-21T01:19:00.214Z,8.75
2022-10-21T01:21:35.357Z,8.73
2022-10-21T01:24:21.388Z,8.78
2022-10-21T01:27:21.958Z,8.72
2022-10-21T01:30:07.287Z,8.74
2022-10-21T01:32:46.825Z,8.74
2022-10-21T01:35:21.886Z,8.65
2022-10-21T01:37:55.797Z,8.71
2022-10-21T01:40:27.210Z,8.68
2022-10-21T01:42:58.086Z,8.60
2022-10-21T01:45:31.647Z,8.70
2022-10-21T01:48:06.107Z,8.54
2022-10-21T01:50:40.681Z,8.61
2022-10-21T01:53:10.609Z,8.52
2022-10-21T01:55:38.267Z,8.52
2022-10-21T01:58:11.185Z,8.58
2022-10-21T02:00:39.577Z,8.48
2022-10-21T02:03:10.560Z,8.50
2022-10-21T02:05:38.194Z,8.43
2022-10-21T02:08:05.778Z,8.46
2022-10-21T02:10:35.733Z,8.58
2022-10-21T02:13:05.289Z,8.48
2022-10-21T02:15:33.953Z,8.57
2022-10-21T02:18:08.439Z,8.50
2022-10-21T02:20:42.080Z,8.54
2022-10-21T02:23:12.571Z,8.43
2022-10-21T02:25:41.911Z,8.54
2022-10-21T02:28:09.695Z,8.53
2022-10-21T02:30:56.471Z,8.54
2022-10-21T02:33:33.771Z,8.45
2022-10-21T02:36:16.368Z,8.41
2022-10-21T02:38:51.761Z,8.49
2022-10-21T02:41:22.383Z,8.35
2022-10-21T02:43:55.066Z,8.44
2022-10-21T02:46:22.231Z,8.36
2022-10-21T02:48:49.695Z,8.37
2022-10-21T02:51:17.041Z,8.20
2022-10-21T02:53:44.390Z,8.29
2022-10-21T02:56:11.952Z,8.27
2022-10-21T02:58:39.237Z,8.23
2022-10-21T03:01:06.595Z,8.25
2022-10-21T03:03:34.203Z,8.17
2022-10-21T03:06:01.491Z,8.12
2022-10-21T03:08:28.833Z,8.13
2022-10-21T03:10:56.411Z,8.07
2022-10-21T03:13:23.795Z,8.15
2022-10-21T03:15:51.522Z,8.27
2022-10-21T03:18:19.073Z,8.20
2022-10-21T03:20:50.817Z,8.19
2022-10-21T03:23:18.855Z,8.26
2022-10-21T03:25:46.558Z,8.17
2022-10-21T03:28:14.248Z,8.17
2022-10-21T03:30:41.807Z,8.10
2022-10-21T03:33:09.357Z,8.11
2022-10-21T03:35:36.702Z,8.07
2022-10-21T03:38:03.976Z,8.14
2022-10-21T03:40:31.533Z,8.02
2022-10-21T03:42:59.507Z,8.00
2022-10-21T03:45:26.803Z,8.00
2022-10-21T03:47:54.436Z,8.05
2022-10-21T03:50:25.999Z,8.20
2022-10-21T03:52:55.016Z,8.07
2022-10-21T03:55:24.228Z,8.12
2022-10-21T03:57:52.731Z,8.07
2022-10-21T04:00:20.540Z,8.11
2022-10-21T04:02:48.119Z,8.17
2022-10-21T04:05:15.909Z,8.17
2022-10-21T04:07:43.302Z,8.22
2022-10-21T04:10:11.712Z,8.23
2022-10-21T04:12:39.189Z,8.20
2022-10-21T04:15:07.748Z,8.34
2022-10-21T04:17:35.334Z,8.51
2022-10-21T04:20:03.061Z,8.51
2022-10-21T04:22:30.368Z,8.57
2022-10-21T04:24:59.751Z,8.77
2022-10-21T04:27:29.792Z,8.87
2022-10-21T04:29:57.090Z,8.93
2022-10-21T04:32:24.681Z,8.94
2022-10-21T04:34:51.980Z,8.99
2022-10-21T04:37:19.292Z,8.94
2022-10-21T04:39:46.869Z,8.97
2022-10-21T04:42:14.249Z,9.04
2022-10-21T04:44:41.595Z,9.06
2022-10-21T04:47:09.174Z,9.13
2022-10-21T04:49:36.476Z,9.14
2022-10-21T04:52:03.951Z,9.31
2022-10-21T04:54:31.591Z,9.28
2022-10-21T04:56:58.903Z,9.27
2022-10-21T04:59:26.245Z,9.37
2022-10-21T05:01:53.810Z,9.36
2022-10-21T05:04:21.213Z,9.38
2022-10-21T05:06:48.490Z,9.49
2022-10-21T05:09:16.167Z,9.51
2022-10-21T05:11:43.735Z,9.52
2022-10-21T05:14:11.027Z,9.39
2022-10-21T05:16:38.752Z,9.33
2022-10-21T05:19:06.045Z,9.39
2022-10-21T05:21:33.395Z,9.33
2022-10-21T05:24:01.074Z,9.52
2022-10-21T05:26:29.074Z,9.53
2022-10-21T05:28:57.768Z,9.52
2022-10-21T05:31:25.693Z,9.49
2022-10-21T05:33:52.993Z,9.65
2022-10-21T05:36:23.235Z,9.59
2022-10-21T05:38:52.154Z,9.67
2022-10-21T05:41:19.607Z,9.66
2022-10-21T05:43:46.936Z,9.81
2022-10-21T05:46:14.468Z,9.78
2022-10-21T05:48:42.305Z,9.83
2022-10-21T05:51:09.624Z,9.89
2022-10-21T05:53:37.251Z,10.20
2022-10-21T05:56:06.695Z,10.36
2022-10-21T05:58:34.632Z,10.31
2022-10-21T06:01:02.817Z,10.56
2022-10-21T06:03:32.442Z,10.76
2022-10-21T06:06:01.891Z,10.88
2022-10-21T06:08:31.091Z,11.01
2022-10-21T06:11:06.227Z,11.07
2022-10-21T06:13:34.021Z,11.31
2022-10-21T06:16:01.852Z,11.21
2022-10-21T06:18:29.509Z,11.34
2022-10-21T06:20:56.851Z,11.43
2022-10-21T06:23:24.592Z,11.68
2022-10-21T06:26:10.601Z,11.68
2022-10-21T06:28:40.075Z,11.59
2022-10-21T06:31:08.321Z,11.67
2022-10-21T06:33:35.853Z,11.51
2022-10-21T06:36:03.997Z,11.70
2022-10-21T06:38:33.075Z,11.82
2022-10-21T06:41:01.680Z,11.87
2022-10-21T06:43:29.711Z,11.85
2022-10-21T06:46:05.571Z,11.90
2022-10-21T06:48:33.500Z,12.06
2022-10-21T06:51:02.807Z,12.22
2022-10-21T06:53:32.105Z,12.34
2022-10-21T06:56:08.036Z,12.21
2022-10-21T06:58:36.811Z,12.40
2022-10-21T07:01:27.190Z,12.44
2022-10-21T07:03:59.314Z,12.42
2022-10-21T07:06:26.983Z,12.28
2022-10-21T07:08:58.264Z,12.35
2022-10-21T07:11:27.621Z,12.53
2022-10-21T07:13:55.251Z,12.61
2022-10-21T07:16:25.430Z,12.73
2022-10-21T07:18:53.457Z,12.74
2022-10-21T07:21:31.041Z,12.86
2022-10-21T07:23:59.720Z,12.88
2022-10-21T07:26:30.016Z,12.93
2022-10-21T07:28:58.908Z,13.07
2022-10-21T07:31:27.557Z,13.09
2022-10-21T07:33:54.934Z,12.96
2022-10-21T07:36:27.588Z,13.05
2022-10-21T07:38:58.574Z,13.07
2022-10-21T07:41:32.039Z,13.13
2022-10-21T07:43:59.790Z,13.03
2022-10-21T07:46:27.314Z,12.96
2022-10-21T07:48:55.384Z,13.05
2022-10-21T07:51:28.445Z,12.98
2022-10-21T07:53:57.132Z,13.12
2022-10-21T07:56:27.644Z,13.11
2022-10-21T07:58:55.300Z,13.21
2022-10-21T08:01:23.344Z,13.28
2022-10-21T08:03:53.255Z,13.26
2022-10-21T08:06:21.069Z,13.25
2022-10-21T08:08:48.427Z,13.29
2022-10-21T08:11:29.428Z,13.21
2022-10-21T08:13:57.338Z,13.35
2022-10-21T08:16:26.476Z,13.41
2022-10-21T08:18:54.653Z,13.59
2022-10-21T08:21:22.108Z,13.77
2022-10-21T08:23:49.666Z,13.65
2022-10-21T08:26:17.201Z,13.61
2022-10-21T08:28:44.667Z,13.75
2022-10-21T08:31:14.712Z,14.04
2022-10-21T08:33:42.540Z,13.80
2022-10-21T08:36:13.559Z,13.93
2022-10-21T08:38:41.229Z,13.86
2022-10-21T08:41:44.975Z,13.99
2022-10-21T08:44:41.831Z,14.22
2022-10-21T08:47:18.602Z,13.97
2022-10-21T08:49:49.046Z,13.83
2022-10-21T08:52:21.051Z,14.02
2022-10-21T08:54:55.942Z,14.32
2022-10-21T08:57:23.545Z,14.29
2022-10-21T08:59:51.299Z,14.42
2022-10-21T09:02:26.505Z,14.38
2022-10-21T09:05:00.051Z,14.32
2022-10-21T09:07:43.613Z,14.38
2022-10-21T09:10:22.661Z,14.52
2022-10-21T09:13:19.041Z,14.65
2022-10-21T09:15:52.540Z,14.78
2022-10-21T09:18:26.551Z,14.69
2022-10-21T09:21:05.783Z,14.80
2022-10-21T09:26:05.574Z,14.97
2022-10-21T09:28:32.957Z,15.06
2022-10-21T09:31:01.625Z,14.98
2022-10-21T09:33:31.881Z,14.84
2022-10-21T09:36:14.288Z,14.83
2022-10-21T09:39:08.123Z,14.82
2022-10-21T09:41:48.121Z,14.70
2022-10-21T09:44:21.251Z,14.61
2022-10-21T09:46:49.976Z,14.63
2022-10-21T09:50:05.412Z,14.72
2022-10-21T09:52:26.398Z,14.85
2022-10-21T09:54:54.070Z,14.99
2022-10-21T09:57:49.304Z,14.85
2022-10-21T10:00:17.038Z,15.07
2022-10-21T10:02:45.812Z,14.84
2022-10-21T10:05:43.878Z,14.98
2022-10-21T10:08:44.833Z,14.82
2022-10-21T10:11:18.331Z,14.83
2022-10-21T10:13:48.202Z,14.96
2022-10-21T10:16:17.055Z,15.16
2022-10-21T10:18:45.105Z,15.25
2022-10-21T10:21:18.386Z,15.45
2022-10-21T10:23:54.441Z,15.44
2022-10-21T10:26:29.118Z,15.43
2022-10-21T10:29:07.912Z,15.48
2022-10-21T10:31:36.027Z,15.61
2022-10-21T10:34:08.752Z,15.54
2022-10-21T10:36:38.140Z,15.74
2022-10-21T10:39:08.834Z,15.66
2022-10-21T10:41:38.991Z,15.60
2022-10-21T10:44:23.622Z,15.67
2022-10-21T10:46:59.310Z,15.68
2022-10-21T10:49:27.697Z,15.58
2022-10-21T10:52:10.474Z,15.35
2022-10-21T10:54:39.006Z,15.44
2022-10-21T10:57:15.577Z,15.53
2022-10-21T10:59:55.593Z,15.78
2022-10-21T11:03:02.867Z,15.84
2022-10-21T11:05:59.552Z,15.64
2022-10-21T11:08:42.266Z,15.48
2022-10-21T11:11:35.451Z,15.46
2022-10-21T11:14:03.118Z,15.62
2022-10-21T11:17:01.389Z,15.56
2022-10-21T11:19:51.807Z,15.69
2022-10-21T11:22:34.363Z,15.49
2022-10-21T11:25:11.523Z,15.58
2022-10-21T11:28:14.619Z,15.47
2022-10-21T11:31:21.263Z,15.49
2022-10-21T11:34:13.417Z,15.66
2022-10-21T11:37:01.357Z,15.76
2022-10-21T11:39:43.474Z,15.51
2022-10-21T11:42:17.322Z,15.47
2022-10-21T11:44:58.163Z,15.57
2022-10-21T11:47:35.313Z,15.69
2022-10-21T11:50:29.004Z,15.78
2022-10-21T11:53:12.476Z,15.70
2022-10-21T11:56:04.720Z,15.45
2022-10-21T11:58:44.308Z,15.61
2022-10-21T12:01:30.028Z,15.50
2022-10-21T12:04:24.927Z,15.71
2022-10-21T12:07:15.210Z,15.71
2022-10-21T12:09:53.833Z,15.79
2022-10-21T12:12:30.003Z,15.87
2022-10-21T12:15:02.592Z,15.75
2022-10-21T12:17:33.964Z,15.90
2022-10-21T12:20:06.361Z,15.89
2022-10-21T12:22:34.738Z,15.69
2022-10-21T12:25:17.533Z,15.62
2022-10-21T12:27:50.785Z,15.58
2022-10-21T12:30:28.959Z,15.46
2022-10-21T12:33:12.903Z,15.61
2022-10-21T12:35:45.518Z,15.69
2022-10-21T12:38:45.930Z,15.73
2022-10-21T12:41:34.534Z,15.69
2022-10-21T12:44:01.698Z,15.84
2022-10-21T12:46:40.274Z,16.00
2022-10-21T12:49:33.885Z,16.07
2022-10-21T12:52:24.747Z,15.99
2022-10-21T12:54:56.891Z,15.83
2022-10-21T12:57:37.595Z,15.84
2022-10-21T13:03:11.031Z,15.97
2022-10-21T13:05:38.256Z,16.13
2022-10-21T13:08:24.128Z,15.95
2022-10-21T13:11:03.436Z,15.95
2022-10-21T13:13:39.198Z,16.01
2022-10-21T13:16:18.620Z,15.92
2022-10-21T13:19:21.300Z,15.97
2022-10-21T13:21:49.413Z,15.72
2022-10-21T13:24:33.867Z,15.84
2022-10-21T13:27:22.465Z,15.65
2022-10-21T13:29:50.421Z,15.67
2022-10-21T13:32:17.869Z,15.74
2022-10-21T13:34:51.161Z,15.72
2022-10-21T13:37:39.181Z,15.88
2022-10-21T13:40:18.727Z,16.06
2022-10-21T13:42:55.636Z,16.22
2022-10-21T13:45:28.852Z,16.05
2022-10-21T13:48:24.576Z,16.10
2022-10-21T13:50:53.192Z,16.13
2022-10-21T13:53:22.421Z,16.00
2022-10-21T13:55:57.348Z,16.06
2022-10-21T13:58:26.579Z,16.09
2022-10-21T14:00:57.917Z,15.92
2022-10-21T14:03:28.084Z,15.87
2022-10-21T14:05:58.556Z,16.00
2022-10-21T14:08:37.837Z,16.06
2022-10-21T14:11:12.528Z,15.88
2022-10-21T14:13:40.004Z,15.99
2022-10-21T14:16:08.875Z,15.75
2022-10-21T14:18:39.611Z,15.78
2022-10-21T14:21:08.318Z,16.00
2022-10-21T14:23:35.948Z,15.93
2022-10-21T14:26:08.836Z,15.88
2022-10-21T14:28:37.230Z,16.05
2022-10-21T14:31:11.889Z,15.85
2022-10-21T14:33:42.639Z,16.05
2022-10-21T14:36:14.898Z,15.82
2022-10-21T14:38:43.843Z,15.86
2022-10-21T14:41:17.726Z,15.95
2022-10-21T14:43:47.236Z,15.87
2022-10-21T14:46:14.652Z,15.79
2022-10-21T14:48:48.175Z,15.72
2022-10-21T14:51:21.186Z,15.68
2022-10-21T14:53:51.233Z,15.57
2022-10-21T14:56:22.283Z,15.61
2022-10-21T14:58:59.232Z,15.74
2022-10-21T15:01:27.202Z,15.72
2022-10-21T15:03:57.146Z,15.73
2022-10-21T15:06:34.747Z,15.58
2022-10-21T15:09:06.746Z,15.71
2022-10-21T15:11:36.137Z,15.55
2022-10-21T15:14:12.488Z,15.69
2022-10-21T15:16:47.413Z,15.51
2022-10-21T15:19:22.136Z,15.43
2022-10-21T15:21:58.499Z,15.41
2022-10-21T15:24:34.475Z,15.57
2022-10-21T15:27:02.427Z,15.45
2022-10-21T15:29:36.570Z,15.31
2022-10-21T15:32:05.571Z,15.25
2022-10-21T15:34:33.347Z,15.53
2022-10-21T15:37:00.674Z,15.50
2022-10-21T15:39:28.456Z,15.56
2022-10-21T15:41:57.481Z,15.58
2022-10-21T15:44:32.756Z,15.35
2022-10-21T15:47:02.580Z,15.44
2022-10-21T15:49:36.561Z,15.43
2022-10-21T15:52:05.070Z,15.36
2022-10-21T15:54:32.699Z,15.40
2022-10-21T15:57:01.349Z,15.25
2022-10-21T15:59:31.420Z,15.46
2022-10-21T16:01:59.142Z,15.52
2022-10-21T16:04:27.051Z,15.47
2022-10-21T16:06:54.858Z,15.50
2022-10-21T16:09:25.708Z,15.56
2022-10-21T16:11:59.494Z,15.40
2022-10-21T16:14:30.123Z,15.47
2022-10-21T16:16:58.858Z,15.54
2022-10-21T16:19:26.799Z,15.48
2022-10-21T16:21:54.768Z,15.59
2022-10-21T16:24:22.333Z,15.66
2022-10-21T16:26:50.244Z,15.46
2022-10-21T16:29:26.591Z,15.58
2022-10-21T16:31:54.274Z,15.42
2022-10-21T16:34:21.644Z,15.35
2022-10-21T16:36:48.955Z,15.30
2022-10-21T16:39:19.195Z,15.26
2022-10-21T16:41:46.498Z,15.25
2022-10-21T16:44:14.553Z,15.28
2022-10-21T16:46:51.827Z,15.30
2022-10-21T16:49:24.822Z,15.46
2022-10-21T16:51:53.023Z,15.54
2022-10-21T16:54:21.844Z,15.54
2022-10-21T16:56:51.077Z,15.28
2022-10-21T16:59:21.094Z,15.11
2022-10-21T17:01:48.400Z,15.04
2022-10-21T17:04:15.777Z,15.14
2022-10-21T17:06:44.220Z,15.33
2022-10-21T17:09:11.785Z,15.29
2022-10-21T17:11:40.670Z,15.31
2022-10-21T17:14:12.269Z,15.42
2022-10-21T17:16:40.104Z,15.29
2022-10-21T17:19:08.019Z,15.33
2022-10-21T17:21:35.320Z,15.35
2022-10-21T17:24:04.437Z,15.21
2022-10-21T17:26:34.013Z,15.16
2022-10-21T17:29:01.391Z,15.21
2022-10-21T17:31:30.448Z,15.05
2022-10-21T17:34:02.111Z,15.04
2022-10-21T17:36:29.406Z,14.91
2022-10-21T17:38:56.722Z,15.06
2022-10-21T17:41:24.320Z,15.12
2022-10-21T17:43:51.668Z,15.16
2022-10-21T17:46:24.506Z,14.97
2022-10-21T17:48:53.829Z,15.10
2022-10-21T17:51:22.562Z,15.10
2022-10-21T17:53:54.193Z,14.96
2022-10-21T17:56:22.872Z,14.98
2022-10-21T17:58:51.818Z,14.86
2022-10-21T18:01:20.227Z,14.86
2022-10-21T18:03:47.962Z,14.88
2022-10-21T18:06:15.839Z,14.92
2022-10-21T18:08:43.722Z,15.01
2022-10-21T18:11:14.158Z,14.98
2022-10-21T18:13:42.078Z,14.92
2022-10-21T18:16:15.439Z,14.88
2022-10-21T18:18:43.438Z,15.03
2022-10-21T18:21:14.081Z,14.99
2022-10-21T18:23:43.329Z,15.00
2022-10-21T18:26:19.921Z,14.98
2022-10-21T18:28:52.438Z,15.07
2022-10-21T18:31:21.496Z,14.89
2022-10-21T18:33:49.184Z,14.89
2022-10-21T18:36:17.502Z,14.83
2022-10-21T18:38:45.209Z,14.72
2022-10-21T18:41:20.617Z,14.74
2022-10-21T18:43:53.790Z,14.65
2022-10-21T18:46:22.601Z,14.77
2022-10-21T18:48:50.374Z,14.74
2022-10-21T18:51:22.493Z,14.75
2022-10-21T18:53:52.757Z,14.81
2022-10-21T18:56:22.102Z,14.87
2022-10-21T18:58:50.835Z,14.72
2022-10-21T19:01:19.600Z,14.71
2022-10-21T19:03:47.303Z,14.74
2022-10-21T19:06:36.972Z,14.78
2022-10-21T19:09:11.185Z,14.79
2022-10-21T19:11:40.311Z,14.73
2022-10-21T19:14:11.197Z,14.76
2022-10-21T19:16:42.379Z,14.74
2022-10-21T19:19:10.398Z,14.73
2022-10-21T19:21:38.052Z,14.70
2022-10-21T19:24:06.275Z,14.74
2022-10-21T19:26:35.235Z,14.72
2022-10-21T19:29:08.764Z,14.71
2022-10-21T19:31:38.517Z,14.68
2022-10-21T19:34:07.187Z,14.56
2022-10-21T19:36:34.702Z,14.57
2022-10-21T19:39:02.277Z,14.66
2022-10-21T19:41:29.671Z,14.66
2022-10-21T19:44:00.293Z,14.64
2022-10-21T19:46:30.412Z,14.56
2022-10-21T19:48:58.071Z,14.47
2022-10-21T19:51:25.941Z,14.59
2022-10-21T19:53:54.842Z,14.58
2022-10-21T19:56:26.983Z,14.47
2022-10-21T19:58:56.228Z,14.44
2022-10-21T20:01:26.281Z,14.34
2022-10-21T20:03:54.707Z,14.20
2022-10-21T20:06:33.684Z,14.32
2022-10-21T20:09:06.870Z,14.09
2022-10-21T20:11:34.244Z,14.04
2022-10-21T20:14:02.420Z,14.02
2022-10-21T20:16:32.161Z,13.94
2022-10-21T20:19:01.096Z,13.87
2022-10-21T20:21:30.367Z,13.74
2022-10-21T20:23:58.913Z,13.83
2022-10-21T20:26:26.865Z,13.72
2022-10-21T20:28:54.824Z,13.66
2022-10-21T20:31:22.179Z,13.70
2022-10-21T20:33:50.727Z,13.67
2022-10-21T20:36:23.871Z,13.47
2022-10-21T20:38:52.645Z,13.44
2022-10-21T20:41:23.061Z,13.36
2022-10-21T20:43:50.964Z,13.50
2022-10-21T20:46:20.455Z,13.60
2022-10-21T20:48:49.292Z,13.51
2022-10-21T20:51:18.904Z,13.53
2022-10-21T20:56:20.296Z,13.51
2022-10-21T20:58:48.183Z,13.51
2022-10-21T21:01:22.233Z,13.52
2022-10-21T21:03:51.310Z,13.58
2022-10-21T21:06:19.254Z,13.61
2022-10-21T21:08:49.271Z,13.64
2022-10-21T21:11:26.107Z,13.60
2022-10-21T21:13:53.450Z,13.62
2022-10-21T21:16:22.041Z,13.56
2022-10-21T21:18:55.624Z,13.54
2022-10-21T21:21:25.533Z,13.65
2022-10-21T21:23:53.952Z,13.75
2022-10-21T21:26:26.792Z,13.64
2022-10-21T21:28:54.632Z,13.68
2022-10-21T21:31:23.541Z,13.70
2022-10-21T21:33:51.286Z,13.76
2022-10-21T21:36:20.171Z,13.77
2022-10-21T21:38:48.381Z,13.80
2022-10-21T21:41:16.705Z,13.79
2022-10-21T21:43:49.200Z,13.85
2022-10-21T21:46:22.759Z,13.78
2022-10-21T21:48:55.247Z,13.73
2022-10-21T21:51:26.707Z,13.89
2022-10-21T21:53:55.135Z,14.02
2022-10-21T21:56:23.016Z,13.99
2022-10-21T21:58:51.258Z,14.04
2022-10-21T22:01:20.941Z,13.88
2022-10-21T22:03:51.563Z,13.97
2022-10-21T22:06:20.878Z,13.82
2022-10-21T22:08:49.154Z,14.03
2022-10-21T22:11:19.870Z,13.81
2022-10-21T22:13:47.298Z,13.88
2022-10-21T22:16:16.091Z,13.90
2022-10-21T22:18:43.919Z,13.78
2022-10-21T22:21:13.748Z,13.79
2022-10-21T22:23:41.652Z,13.83
2022-10-21T22:26:09.761Z,13.98
2022-10-21T22:28:37.408Z,13.93
2022-10-21T22:31:10.708Z,13.94
2022-10-21T22:33:38.849Z,13.93
2022-10-21T22:36:07.129Z,14.02
2022-10-21T22:38:34.701Z,14.07
2022-10-21T22:41:05.205Z,14.01
2022-10-21T22:43:34.449Z,13.94
2022-10-21T22:46:15.380Z,14.04
2022-10-21T22:48:49.180Z,13.98
2022-10-21T22:51:16.769Z,14.05
2022-10-21T22:53:44.044Z,13.93
2022-10-21T22:56:11.321Z,14.14
2022-10-21T22:58:38.951Z,13.90
2022-10-21T23:01:08.805Z,13.96
2022-10-21T23:03:36.635Z,14.12
2022-10-21T23:06:04.375Z,13.96
2022-10-21T23:08:31.793Z,13.95
2022-10-21T23:10:59.297Z,14.01
2022-10-21T23:13:26.923Z,14.02
2022-10-21T23:15:54.238Z,14.10
2022-10-21T23:18:21.752Z,14.09
2022-10-21T23:20:49.488Z,13.99
2022-10-21T23:23:16.819Z,13.90
2022-10-21T23:25:44.155Z,14.02
2022-10-21T23:28:11.863Z,14.04
2022-10-21T23:30:40.496Z,14.03
2022-10-21T23:33:08.042Z,13.96
2022-10-21T23:35:35.832Z,14.05
2022-10-21T23:38:03.469Z,14.08
2022-10-21T23:40:30.826Z,14.18
2022-10-21T23:42:58.521Z,14.11
2022-10-21T23:45:25.852Z,14.03
2022-10-21T23:47:53.180Z,13.97
2022-10-21T23:50:20.873Z,13.93
2022-10-21T23:52:48.171Z,14.01
2022-10-21T23:55:15.665Z,13.94
2022-10-21T23:57:43.448Z,14.11
